Seattle, Washington
Traffic Map
Current Weather Conditions
Seattle, Washington
Clear
Clear
62°
Feels Like: 62°
Wind Chill: 62° Ceiling: Unl
Heat Index: 62° Visibility: 10mi
Dew Point: 42° Wind: 6mph
Humidity: 48% Direction: 60° (ENE)
Pressure: 30.12in Gusts: 0mph
Raw Report DataKBFI 251653Z 06005KT 10SM CLR 17/06 A3012 RMK AO2 SLP199 T01670056
Traffic Incident Summary
Active as of:
Severity:
Category:
InformationThere was an issue retrieving the traffic information for this location. Please try a different location or try again shortly.
Advertisements